Time;durP1;ratioP1;P1;durP2;ratioP2;P2;SDS_P1;SDS_P2;PMS_P1;PMS_P2;Temp;Humidity;BMP_temperature;BMP_pressure;BME280_temperature;BME280_humidity;BME280_pressure;Samples;Min_cycle;Max_cycle;Signal;HPM_P1;HPM_P2
2021/10/08 00:00:27;;;;;;;;;;;;;;;;;;5075926;28;20007;-86
2021/10/08 00:02:53;;;;;;;;;;;;;;;;;;5075965;28;19935;-85
2021/10/08 00:05:18;;;;;;;;;;;;;;;;;;5075983;28;19958;-85
2021/10/08 00:07:43;;;;;;;;;;;;;;;;;;5075702;28;19958;-85
2021/10/08 00:10:09;;;;;;;;;;;;;;;;;;5075803;28;19919;-84
2021/10/08 00:12:34;;;;;;;;;;;;;;;;;;5075773;28;20336;-85
2021/10/08 00:15:00;;;;;;;;;;;;;;;;;;5075600;28;19920;-85
2021/10/08 00:17:25;;;;;;;;;;;;;;;;;;5075609;28;19919;-86
2021/10/08 00:19:51;;;;;;;;;;;;;;;;;;5075701;28;20002;-86
2021/10/08 00:22:16;;;;;;;;;;;;;;;;;;5057727;28;19920;-85
2021/10/08 00:24:42;;;;;;;;;;;;;;;;;;5075533;28;19917;-85
2021/10/08 00:27:07;;;;;;;;;;;;;;;;;;5075515;28;19939;-85
2021/10/08 00:29:33;;;;;;;;;;;;;;;;;;5075339;28;20364;-85
2021/10/08 00:31:58;;;;;;;;;;;;;;;;;;5075382;28;19924;-85
2021/10/08 00:34:23;;;;;;;;;;;;;;;;;;5075392;28;19920;-85
2021/10/08 00:36:49;;;;;;;;;;;;;;;;;;5075468;28;19948;-84
2021/10/08 00:39:14;;;;;;;;;;;;;;;;;;5075154;28;19924;-85
2021/10/08 00:41:40;;;;;;;;;;;;;;;;;;5075122;28;19921;-85
2021/10/08 00:44:05;;;;;;;;;;;;;;;;;;5075174;28;19916;-85
2021/10/08 00:46:31;;;;;;;;;;;;;;;;;;5075164;28;19939;-84
2021/10/08 00:48:56;;;;;;;;;;;;;;;;;;5074993;28;20284;-85
2021/10/08 00:51:23;;;;;;;;;;;;;;;;;;5057106;28;19916;-86
2021/10/08 00:53:48;;;;;;;;;;;;;;;;;;5073778;28;19990;-84
2021/10/08 00:56:18;;;;;;;;;;;;;;;;;;5074679;28;20373;-84
2021/10/08 00:58:43;;;;;;;;;;;;;;;;;;5079509;28;20334;-84
2021/10/08 01:01:09;;;;;;;;;;;;;;;;;;5060466;28;19916;-84
2021/10/08 01:03:34;;;;;;;;;;;;;;;;;;5075475;28;20369;-83
2021/10/08 01:06:00;;;;;;;;;;;;;;;;;;5075371;28;19921;-84
2021/10/08 01:08:25;;;;;;;;;;;;;;;;;;5075063;28;19921;-85
2021/10/08 01:10:51;;;;;;;;;;;;;;;;;;5074923;28;19920;-84
2021/10/08 01:13:16;;;;;;;;;;;;;;;;;;5074925;28;19967;-85
2021/10/08 01:15:42;;;;;;;;;;;;;;;;;;5057457;28;19916;-84
2021/10/08 01:18:07;;;;;;;;;;;;;;;;;;5074415;28;19917;-85
2021/10/08 01:20:33;;;;;;;;;;;;;;;;;;5074437;28;19916;-84
2021/10/08 01:22:59;;;;;;;;;;;;;;;;;;5074378;28;20011;-83
2021/10/08 01:25:29;;;;;;;;;;;;;;;;;;5074378;28;19959;-84
2021/10/08 01:27:55;;;;;;;;;;;;;;;;;;5074431;28;20285;-84
2021/10/08 01:30:21;;;;;;;;;;;;;;;;;;5074261;28;19917;-85
2021/10/08 01:32:47;;;;;;;;;;;;;;;;;;5074177;28;19916;-85
2021/10/08 01:35:12;;;;;;;;;;;;;;;;;;5074416;28;20257;-84
2021/10/08 01:37:38;;;;;;;;;;;;;;;;;;5074150;28;19912;-84
2021/10/08 01:40:04;;;;;;;;;;;;;;;;;;5074193;28;19922;-84
2021/10/08 01:42:30;;;;;;;;;;;;;;;;;;5074117;28;19916;-85
2021/10/08 01:44:56;;;;;;;;;;;;;;;;;;5073790;28;19923;-84
2021/10/08 01:47:21;;;;;;;;;;;;;;;;;;5074137;28;19916;-84
2021/10/08 01:49:46;;;;;;;;;;;;;;;;;;5074071;28;19923;-85
2021/10/08 01:52:12;;;;;;;;;;;;;;;;;;5074069;28;20003;-83
2021/10/08 01:54:37;;;;;;;;;;;;;;;;;;5074017;28;19917;-84
2021/10/08 01:57:03;;;;;;;;;;;;;;;;;;5073736;28;20368;-84
2021/10/08 01:59:28;;;;;;;;;;;;;;;;;;5073949;28;20276;-84
2021/10/08 02:01:54;;;;;;;;;;;;;;;;;;5073893;28;19917;-85
2021/10/08 02:04:19;;;;;;;;;;;;;;;;;;5055903;28;19921;-85
2021/10/08 02:06:45;;;;;;;;;;;;;;;;;;5074106;28;19923;-85
2021/10/08 02:09:13;;;;;;;;;;;;;;;;;;5073809;28;19926;-84
2021/10/08 02:11:38;;;;;;;;;;;;;;;;;;5073985;28;19916;-85
2021/10/08 02:14:05;;;;;;;;;;;;;;;;;;5073961;28;19916;-84
2021/10/08 02:16:30;;;;;;;;;;;;;;;;;;5073778;28;19920;-85
2021/10/08 02:18:56;;;;;;;;;;;;;;;;;;5073816;28;19924;-84
2021/10/08 02:21:22;;;;;;;;;;;;;;;;;;5073975;28;19923;-86
2021/10/08 02:23:48;;;;;;;;;;;;;;;;;;5073752;28;19917;-85
2021/10/08 02:26:14;;;;;;;;;;;;;;;;;;5073911;28;19923;-84
2021/10/08 02:28:39;;;;;;;;;;;;;;;;;;5074105;28;19943;-84
2021/10/08 02:31:05;;;;;;;;;;;;;;;;;;5055775;28;19924;-85
2021/10/08 02:33:30;;;;;;;;;;;;;;;;;;5073899;28;19920;-86
2021/10/08 02:35:56;;;;;;;;;;;;;;;;;;5073523;28;19917;-86
2021/10/08 02:38:22;;;;;;;;;;;;;;;;;;5073554;28;20288;-85
2021/10/08 02:40:48;;;;;;;;;;;;;;;;;;5073633;28;19923;-85
2021/10/08 02:43:13;;;;;;;;;;;;;;;;;;5073462;28;19922;-85
2021/10/08 02:45:39;;;;;;;;;;;;;;;;;;5073496;28;19922;-84
2021/10/08 02:48:05;;;;;;;;;;;;;;;;;;5073398;28;20011;-85
2021/10/08 02:50:30;;;;;;;;;;;;;;;;;;5073386;28;20324;-86
2021/10/08 02:52:56;;;;;;;;;;;;;;;;;;5073421;28;20372;-85
2021/10/08 02:55:21;;;;;;;;;;;;;;;;;;5073404;28;19916;-86
2021/10/08 02:57:47;;;;;;;;;;;;;;;;;;5075928;28;20368;-85
2021/10/08 03:00:12;;;;;;;;;;;;;;;;;;5077104;28;20330;-86
2021/10/08 03:02:39;;;;;;;;;;;;;;;;;;5079902;28;19924;-86
2021/10/08 03:05:05;;;;;;;;;;;;;;;;;;5081167;28;19965;-85
2021/10/08 03:07:30;;;;;;;;;;;;;;;;;;5081110;28;19924;-85
2021/10/08 03:09:56;;;;;;;;;;;;;;;;;;5078834;28;19919;-85
2021/10/08 03:12:22;;;;;;;;;;;;;;;;;;5059477;28;19916;-85
2021/10/08 03:14:47;;;;;;;;;;;;;;;;;;5059208;28;19917;-85
2021/10/08 03:17:13;;;;;;;;;;;;;;;;;;5076951;28;19919;-85
2021/10/08 03:19:38;;;;;;;;;;;;;;;;;;5078228;28;19917;-85
2021/10/08 03:22:04;;;;;;;;;;;;;;;;;;5059058;28;20376;-84
2021/10/08 03:24:29;;;;;;;;;;;;;;;;;;5059082;28;19916;-85
2021/10/08 03:26:55;;;;;;;;;;;;;;;;;;5077198;28;19920;-84
2021/10/08 03:29:20;;;;;;;;;;;;;;;;;;5076864;28;19973;-85
2021/10/08 03:31:45;;;;;;;;;;;;;;;;;;5076368;28;19924;-85
2021/10/08 03:34:11;;;;;;;;;;;;;;;;;;5076830;28;19916;-86
2021/10/08 03:39:06;;;;;;;;;;;;;;;;;;5059583;28;20315;-84
2021/10/08 03:41:32;;;;;;;;;;;;;;;;;;5077033;28;19960;-84
2021/10/08 03:43:57;;;;;;;;;;;;;;;;;;5076863;28;19952;-84
2021/10/08 03:46:26;;;;;;;;;;;;;;;;;;5077682;28;19916;-83
2021/10/08 03:51:32;;;;;;;;;;;;;;;;;;5076390;28;19924;-84
2021/10/08 03:53:57;;;;;;;;;;;;;;;;;;5076134;28;19916;-83
2021/10/08 03:56:23;;;;;;;;;;;;;;;;;;5076485;28;20010;-84
2021/10/08 03:58:49;;;;;;;;;;;;;;;;;;5075991;28;19962;-85
2021/10/08 04:01:15;;;;;;;;;;;;;;;;;;5076854;28;19921;-83
2021/10/08 04:03:41;;;;;;;;;;;;;;;;;;5076007;28;19927;-83
2021/10/08 04:06:06;;;;;;;;;;;;;;;;;;5076713;28;19912;-83
2021/10/08 04:08:35;;;;;;;;;;;;;;;;;;5058329;28;20265;-84
2021/10/08 04:11:00;;;;;;;;;;;;;;;;;;5076887;28;20372;-85
2021/10/08 04:13:26;;;;;;;;;;;;;;;;;;5075726;28;19916;-84
2021/10/08 04:15:51;;;;;;;;;;;;;;;;;;5077386;28;19978;-90
2021/10/08 04:18:16;;;;;;;;;;;;;;;;;;5075579;28;20292;-87
2021/10/08 04:20:42;;;;;;;;;;;;;;;;;;5075722;28;19923;-86
2021/10/08 04:23:08;;;;;;;;;;;;;;;;;;5075604;28;20007;-87
2021/10/08 04:25:34;;;;;;;;;;;;;;;;;;5075520;28;20010;-87
2021/10/08 04:27:59;;;;;;;;;;;;;;;;;;5075491;28;19923;-86
2021/10/08 04:30:25;;;;;;;;;;;;;;;;;;5075554;28;19912;-87
2021/10/08 04:32:50;;;;;;;;;;;;;;;;;;5057593;28;20015;-88
2021/10/08 04:35:16;;;;;;;;;;;;;;;;;;5057422;28;20013;-88
2021/10/08 04:37:41;;;;;;;;;;;;;;;;;;5075355;28;20019;-87
2021/10/08 04:40:07;;;;;;;;;;;;;;;;;;5075305;28;19923;-86
2021/10/08 04:42:33;;;;;;;;;;;;;;;;;;5075780;28;19919;-87
2021/10/08 04:44:59;;;;;;;;;;;;;;;;;;5079626;28;19923;-88
2021/10/08 04:47:24;;;;;;;;;;;;;;;;;;5062522;28;20338;-87
2021/10/08 04:49:50;;;;;;;;;;;;;;;;;;5076595;28;19923;-87
2021/10/08 04:52:15;;;;;;;;;;;;;;;;;;5075620;28;19977;-87
2021/10/08 04:54:40;;;;;;;;;;;;;;;;;;5075515;28;20283;-87
2021/10/08 04:57:06;;;;;;;;;;;;;;;;;;5057012;28;19931;-86
2021/10/08 04:59:32;;;;;;;;;;;;;;;;;;5075226;28;19923;-88
2021/10/08 05:01:57;;;;;;;;;;;;;;;;;;5074786;28;19917;-88
2021/10/08 05:04:23;;;;;;;;;;;;;;;;;;5074792;28;19916;-88
2021/10/08 05:06:48;;;;;;;;;;;;;;;;;;5074784;28;19917;-90
2021/10/08 05:09:14;;;;;;;;;;;;;;;;;;5074758;28;19923;-89
2021/10/08 05:11:39;;;;;;;;;;;;;;;;;;5074967;28;19939;-87
2021/10/08 05:14:05;;;;;;;;;;;;;;;;;;5074577;28;19952;-88
2021/10/08 05:16:30;;;;;;;;;;;;;;;;;;5074579;28;19951;-87
2021/10/08 05:18:56;;;;;;;;;;;;;;;;;;5073784;28;20011;-89
2021/10/08 05:21:21;;;;;;;;;;;;;;;;;;5074432;28;19916;-91
2021/10/08 05:23:47;;;;;;;;;;;;;;;;;;5073793;28;19920;-89
2021/10/08 05:26:12;;;;;;;;;;;;;;;;;;5074561;28;19917;-89
2021/10/08 05:28:38;;;;;;;;;;;;;;;;;;5074334;28;19923;-90
2021/10/08 05:31:05;;;;;;;;;;;;;;;;;;5074426;28;19916;-88
2021/10/08 05:33:31;;;;;;;;;;;;;;;;;;5071809;28;20411;-88
2021/10/08 05:35:56;;;;;;;;;;;;;;;;;;5074348;28;19916;-87
2021/10/08 05:38:22;;;;;;;;;;;;;;;;;;5074325;28;20277;-88
2021/10/08 05:40:48;;;;;;;;;;;;;;;;;;5074215;28;19916;-88
2021/10/08 05:43:14;;;;;;;;;;;;;;;;;;5052857;28;19917;-86
2021/10/08 05:45:39;;;;;;;;;;;;;;;;;;5087723;28;19912;-87
2021/10/08 05:48:05;;;;;;;;;;;;;;;;;;5076059;28;19920;-86
2021/10/08 05:50:30;;;;;;;;;;;;;;;;;;5075599;28;20395;-88
2021/10/08 05:52:56;;;;;;;;;;;;;;;;;;5073355;28;20426;-86
2021/10/08 05:55:23;;;;;;;;;;;;;;;;;;5055942;28;20012;-87
2021/10/08 05:57:49;;;;;;;;;;;;;;;;;;5055655;28;19921;-85
2021/10/08 06:00:14;;;;;;;;;;;;;;;;;;5072476;28;19927;-86
2021/10/08 06:02:39;;;;;;;;;;;;;;;;;;5073754;28;19927;-89
2021/10/08 06:05:05;;;;;;;;;;;;;;;;;;5072417;28;19928;-89
2021/10/08 06:07:31;;;;;;;;;;;;;;;;;;5073849;28;19927;-90
2021/10/08 06:09:56;;;;;;;;;;;;;;;;;;5073945;28;19921;-89
2021/10/08 06:12:21;;;;;;;;;;;;;;;;;;5073408;28;19927;-89
2021/10/08 06:14:47;;;;;;;;;;;;;;;;;;5069223;28;19923;-87
2021/10/08 06:17:12;;;;;;;;;;;;;;;;;;5055916;28;19917;-89
2021/10/08 06:19:40;;;;;;;;;;;;;;;;;;5072659;28;19920;-88
2021/10/08 06:22:06;;;;;;;;;;;;;;;;;;5055365;28;19921;-84
2021/10/08 06:24:31;;;;;;;;;;;;;;;;;;5073736;28;19963;-86
2021/10/08 06:26:57;;;;;;;;;;;;;;;;;;5071561;28;19966;-87
2021/10/08 06:29:22;;;;;;;;;;;;;;;;;;5073241;28;19956;-85
2021/10/08 06:31:48;;;;;;;;;;;;;;;;;;5076426;28;20279;-87
2021/10/08 06:34:13;;;;;;;;;;;;;;;;;;5059494;28;19917;-86
2021/10/08 06:36:39;;;;;;;;;;;;;;;;;;5076995;28;19916;-89
2021/10/08 06:39:04;;;;;;;;;;;;;;;;;;5077442;28;19916;-87
2021/10/08 06:41:29;;;;;;;;;;;;;;;;;;5076774;28;20047;-89
2021/10/08 06:43:55;;;;;;;;;;;;;;;;;;5075633;28;19920;-89
2021/10/08 06:46:21;;;;;;;;;;;;;;;;;;5074428;28;19925;-90
2021/10/08 06:48:46;;;;;;;;;;;;;;;;;;5058019;28;19924;-89
2021/10/08 06:51:12;;;;;;;;;;;;;;;;;;5072752;28;19927;-89
2021/10/08 06:53:37;;;;;;;;;;;;;;;;;;5074049;28;19928;-87
2021/10/08 06:56:03;;;;;;;;;;;;;;;;;;5077060;28;20011;-86
2021/10/08 06:58:28;;;;;;;;;;;;;;;;;;5059125;28;19927;-86
2021/10/08 07:00:55;;;;;;;;;;;;;;;;;;5072930;28;19921;-85
2021/10/08 07:03:21;;;;;;;;;;;;;;;;;;5077331;28;20318;-89
2021/10/08 07:05:46;;;;;;;;;;;;;;;;;;5076282;28;19917;-89
2021/10/08 07:08:12;;;;;;;;;;;;;;;;;;5075551;28;19927;-88
2021/10/08 07:10:39;;;;;;;;;;;;;;;;;;5058256;28;20338;-84
2021/10/08 07:13:05;;;;;;;;;;;;;;;;;;5058421;28;20354;-87
2021/10/08 07:15:30;;;;;;;;;;;;;;;;;;5058848;28;19959;-86
2021/10/08 07:17:56;;;;;;;;;;;;;;;;;;5053546;28;19923;-85
2021/10/08 07:20:22;;;;;;;;;;;;;;;;;;5058569;28;19917;-86
2021/10/08 07:22:48;;;;;;;;;;;;;;;;;;5076949;28;20359;-86
2021/10/08 07:25:14;;;;;;;;;;;;;;;;;;5058660;28;20380;-84
2021/10/08 07:27:40;;;;;;;;;;;;;;;;;;5057021;28;19928;-85
2021/10/08 07:30:06;;;;;;;;;;;;;;;;;;5058515;28;20009;-86
2021/10/08 07:32:32;;;;;;;;;;;;;;;;;;5053534;28;20383;-85
2021/10/08 07:34:57;;;;;;;;;;;;;;;;;;5074523;28;20054;-85
2021/10/08 07:37:23;;;;;;;;;;;;;;;;;;5076626;28;19916;-85
2021/10/08 07:39:49;;;;;;;;;;;;;;;;;;5076304;28;19916;-84
2021/10/08 07:42:14;;;;;;;;;;;;;;;;;;5075285;28;19916;-86
2021/10/08 07:44:40;;;;;;;;;;;;;;;;;;5075845;28;19973;-85
2021/10/08 07:47:06;;;;;;;;;;;;;;;;;;5076409;28;19917;-85
2021/10/08 07:49:31;;;;;;;;;;;;;;;;;;5078109;28;20382;-87
2021/10/08 07:51:56;;;;;;;;;;;;;;;;;;5076675;28;19917;-85
2021/10/08 07:54:22;;;;;;;;;;;;;;;;;;5058040;28;19917;-85
2021/10/08 07:56:47;;;;;;;;;;;;;;;;;;5057898;28;19973;-85
2021/10/08 07:59:13;;;;;;;;;;;;;;;;;;5058043;28;19969;-85
2021/10/08 08:01:38;;;;;;;;;;;;;;;;;;5058081;28;19916;-86
2021/10/08 08:04:03;;;;;;;;;;;;;;;;;;5075621;28;19917;-86
2021/10/08 08:06:29;;;;;;;;;;;;;;;;;;5075924;28;19917;-85
2021/10/08 08:08:54;;;;;;;;;;;;;;;;;;5075909;28;19917;-86
2021/10/08 08:11:20;;;;;;;;;;;;;;;;;;5075937;28;20424;-87
2021/10/08 08:13:45;;;;;;;;;;;;;;;;;;5075664;28;20011;-89
2021/10/08 08:16:11;;;;;;;;;;;;;;;;;;5075801;28;20376;-87
2021/10/08 08:18:36;;;;;;;;;;;;;;;;;;5075915;28;19917;-87
2021/10/08 08:21:03;;;;;;;;;;;;;;;;;;5075701;28;19970;-86
2021/10/08 08:23:28;;;;;;;;;;;;;;;;;;5080807;28;20384;-85
2021/10/08 08:25:55;;;;;;;;;;;;;;;;;;5080960;28;19917;-86
2021/10/08 08:28:21;;;;;;;;;;;;;;;;;;5058037;28;19921;-86
2021/10/08 08:30:46;;;;;;;;;;;;;;;;;;5058031;28;19916;-86
2021/10/08 08:33:12;;;;;;;;;;;;;;;;;;5075858;28;19924;-88
2021/10/08 08:35:38;;;;;;;;;;;;;;;;;;5075432;28;20392;-88
2021/10/08 08:38:03;;;;;;;;;;;;;;;;;;5077077;28;19916;-88
2021/10/08 08:40:29;;;;;;;;;;;;;;;;;;5077364;28;19923;-81
2021/10/08 08:42:55;;;;;;;;;;;;;;;;;;5075167;28;20327;-85
2021/10/08 08:45:21;;;;;;;;;;;;;;;;;;5075063;28;19924;-87
2021/10/08 08:48:06;;;;;;;;;;;;;;;;;;5057002;28;19917;-84
2021/10/08 08:50:33;;;;;;;;;;;;;;;;;;5075007;28;19916;-84
2021/10/08 08:52:59;;;;;;;;;;;;;;;;;;5075085;28;19917;-83
2021/10/08 08:55:24;;;;;;;;;;;;;;;;;;5056971;28;19978;-82
2021/10/08 08:57:50;;;;;;;;;;;;;;;;;;5074629;28;20191;-84
2021/10/08 09:00:17;;;;;;;;;;;;;;;;;;5074751;28;20386;-86
2021/10/08 09:02:42;;;;;;;;;;;;;;;;;;5074684;28;20287;-83
2021/10/08 09:05:17;;;;;;;;;;;;;;;;;;5074695;28;19917;-84
2021/10/08 09:07:43;;;;;;;;;;;;;;;;;;5074954;28;19916;-85
2021/10/08 09:10:23;;;;;;;;;;;;;;;;;;5074687;28;19916;-88
2021/10/08 09:12:50;;;;;;;;;;;;;;;;;;5074833;28;19916;-85
2021/10/08 09:15:16;;;;;;;;;;;;;;;;;;5074631;28;19924;-86
2021/10/08 09:17:42;;;;;;;;;;;;;;;;;;5074474;28;19920;-87
2021/10/08 09:20:09;;;;;;;;;;;;;;;;;;5056595;28;19925;-86
2021/10/08 09:22:39;;;;;;;;;;;;;;;;;;5074718;28;20444;-86
2021/10/08 09:25:08;;;;;;;;;;;;;;;;;;5074391;28;19923;-86
2021/10/08 09:27:35;;;;;;;;;;;;;;;;;;5070343;28;19926;-85
2021/10/08 09:30:00;;;;;;;;;;;;;;;;;;5056047;28;20023;-84
2021/10/08 09:32:26;;;;;;;;;;;;;;;;;;5073430;28;20011;-85
2021/10/08 09:35:09;;;;;;;;;;;;;;;;;;5074104;28;19940;-84
2021/10/08 09:37:36;;;;;;;;;;;;;;;;;;5056137;28;19916;-84
2021/10/08 09:40:03;;;;;;;;;;;;;;;;;;5073893;28;19917;-82
2021/10/08 09:42:36;;;;;;;;;;;;;;;;;;5068912;28;19962;-84
2021/10/08 09:45:02;;;;;;;;;;;;;;;;;;5073341;28;20384;-83
2021/10/08 09:47:29;;;;;;;;;;;;;;;;;;5073226;28;19952;-85
2021/10/08 09:50:11;;;;;;;;;;;;;;;;;;5075749;28;19921;-85
2021/10/08 09:52:36;;;;;;;;;;;;;;;;;;5069546;28;19916;-84
2021/10/08 09:55:06;;;;;;;;;;;;;;;;;;5061883;28;19966;-88
2021/10/08 09:57:47;;;;;;;;;;;;;;;;;;5071246;28;20033;-83
2021/10/08 10:00:32;;;;;;;;;;;;;;;;;;5073724;28;19978;-82
2021/10/08 10:03:01;;;;;;;;;;;;;;;;;;5073136;28;19920;-82
2021/10/08 10:05:27;;;;;;;;;;;;;;;;;;5072412;28;19924;-83
2021/10/08 10:07:54;;;;;;;;;;;;;;;;;;5073861;28;19919;-87
2021/10/08 10:10:19;;;;;;;;;;;;;;;;;;5055506;28;19920;-84
2021/10/08 10:12:45;;;;;;;;;;;;;;;;;;5073745;28;19924;-84
2021/10/08 10:15:10;;;;;;;;;;;;;;;;;;5073767;28;20011;-87
2021/10/08 10:17:37;;;;;;;;;;;;;;;;;;5073657;28;20058;-85
2021/10/08 10:20:02;;;;;;;;;;;;;;;;;;5055520;28;19955;-86
2021/10/08 10:22:31;;;;;;;;;;;;;;;;;;5073936;28;19943;-87
2021/10/08 10:24:57;;;;;;;;;;;;;;;;;;5073888;28;19917;-85
2021/10/08 10:27:22;;;;;;;;;;;;;;;;;;5073292;28;19927;-87
2021/10/08 10:29:48;;;;;;;;;;;;;;;;;;5072799;28;19955;-84
2021/10/08 10:32:14;;;;;;;;;;;;;;;;;;5067171;28;19920;-89
2021/10/08 10:34:40;;;;;;;;;;;;;;;;;;5055553;28;19947;-85
2021/10/08 10:37:06;;;;;;;;;;;;;;;;;;5073587;28;19920;-87
2021/10/08 10:39:32;;;;;;;;;;;;;;;;;;5073411;28;19921;-88
2021/10/08 10:42:01;;;;;;;;;;;;;;;;;;5055475;28;20364;-88
2021/10/08 10:44:48;;;;;;;;;;;;;;;;;;5073549;28;20268;-89
2021/10/08 10:47:19;;;;;;;;;;;;;;;;;;5072307;28;19920;-87
2021/10/08 10:49:51;;;;;;;;;;;;;;;;;;5055410;28;19919;-86
2021/10/08 10:52:19;;;;;;;;;;;;;;;;;;5055541;28;19917;-87
2021/10/08 10:54:54;;;;;;;;;;;;;;;;;;5055549;28;19981;-87
2021/10/08 10:57:23;;;;;;;;;;;;;;;;;;5073349;28;20287;-86
2021/10/08 10:59:48;;;;;;;;;;;;;;;;;;5073354;28;20011;-87
2021/10/08 11:02:24;;;;;;;;;;;;;;;;;;5073165;28;20357;-86
2021/10/08 11:04:54;;;;;;;;;;;;;;;;;;5073330;28;19916;-84
2021/10/08 11:07:22;;;;;;;;;;;;;;;;;;5073828;28;20007;-85
2021/10/08 11:09:56;;;;;;;;;;;;;;;;;;5058081;28;19920;-86
2021/10/08 11:12:42;;;;;;;;;;;;;;;;;;5072285;28;19936;-87
2021/10/08 11:15:17;;;;;;;;;;;;;;;;;;5044706;28;19967;-88
2021/10/08 11:17:48;;;;;;;;;;;;;;;;;;5042164;28;20364;-84
2021/10/08 11:20:29;;;;;;;;;;;;;;;;;;5076812;28;19920;-85
2021/10/08 11:22:59;;;;;;;;;;;;;;;;;;5076989;28;19938;-85
2021/10/08 11:25:25;;;;;;;;;;;;;;;;;;5076966;28;20284;-86
2021/10/08 11:27:51;;;;;;;;;;;;;;;;;;5076635;28;19920;-84
2021/10/08 11:30:16;;;;;;;;;;;;;;;;;;5076431;28;19917;-84
2021/10/08 11:32:46;;;;;;;;;;;;;;;;;;5076768;28;20344;-84
2021/10/08 11:35:14;;;;;;;;;;;;;;;;;;5076598;28;20297;-85
2021/10/08 11:37:43;;;;;;;;;;;;;;;;;;5076620;28;19970;-86
2021/10/08 11:40:09;;;;;;;;;;;;;;;;;;5076578;28;20007;-84
2021/10/08 11:42:37;;;;;;;;;;;;;;;;;;5076481;28;19917;-85
2021/10/08 11:45:06;;;;;;;;;;;;;;;;;;5076133;28;19921;-84
2021/10/08 11:47:40;;;;;;;;;;;;;;;;;;5076343;28;20391;-85
2021/10/08 11:52:54;;;;;;;;;;;;;;;;;;5076602;28;20018;-85
2021/10/08 11:55:21;;;;;;;;;;;;;;;;;;5075957;28;19939;-85
2021/10/08 11:57:52;;;;;;;;;;;;;;;;;;5075761;28;19931;-86
2021/10/08 12:00:18;;;;;;;;;;;;;;;;;;5076557;28;20361;-85
2021/10/08 12:02:56;;;;;;;;;;;;;;;;;;5080993;28;19916;-84
2021/10/08 12:05:22;;;;;;;;;;;;;;;;;;5078632;28;19962;-84
2021/10/08 12:07:57;;;;;;;;;;;;;;;;;;5076846;28;19920;-85
2021/10/08 12:10:22;;;;;;;;;;;;;;;;;;5076363;28;19969;-86
2021/10/08 12:12:48;;;;;;;;;;;;;;;;;;5076103;28;20010;-85
2021/10/08 12:15:20;;;;;;;;;;;;;;;;;;5075965;28;19917;-84
2021/10/08 12:17:49;;;;;;;;;;;;;;;;;;5077579;28;20030;-84
2021/10/08 12:20:21;;;;;;;;;;;;;;;;;;5074569;28;19924;-85
2021/10/08 12:22:47;;;;;;;;;;;;;;;;;;5075057;28;20286;-85
2021/10/08 12:25:12;;;;;;;;;;;;;;;;;;5075573;28;19916;-85
2021/10/08 12:27:38;;;;;;;;;;;;;;;;;;5077079;28;20368;-87
2021/10/08 12:30:03;;;;;;;;;;;;;;;;;;5068650;28;19920;-84
2021/10/08 12:32:31;;;;;;;;;;;;;;;;;;5061993;28;20377;-83
2021/10/08 12:34:57;;;;;;;;;;;;;;;;;;5067382;28;20380;-89
2021/10/08 12:37:30;;;;;;;;;;;;;;;;;;5055363;28;19923;-85
2021/10/08 12:40:03;;;;;;;;;;;;;;;;;;5074765;28;19999;-86
2021/10/08 12:42:33;;;;;;;;;;;;;;;;;;5068243;28;20265;-86
2021/10/08 12:44:59;;;;;;;;;;;;;;;;;;5069554;28;19920;-87
2021/10/08 12:47:26;;;;;;;;;;;;;;;;;;5074490;28;19928;-86
2021/10/08 12:49:53;;;;;;;;;;;;;;;;;;5074980;28;19920;-84
2021/10/08 12:52:37;;;;;;;;;;;;;;;;;;5069216;28;20320;-85
2021/10/08 12:55:06;;;;;;;;;;;;;;;;;;5068245;28;20023;-87
2021/10/08 12:57:32;;;;;;;;;;;;;;;;;;5074934;28;19991;-86
2021/10/08 12:59:57;;;;;;;;;;;;;;;;;;5075008;28;20003;-88
2021/10/08 13:02:43;;;;;;;;;;;;;;;;;;5074950;28;19925;-86
2021/10/08 13:05:09;;;;;;;;;;;;;;;;;;5056992;28;19920;-85
2021/10/08 13:07:35;;;;;;;;;;;;;;;;;;5059265;28;19916;-87
2021/10/08 13:10:11;;;;;;;;;;;;;;;;;;5055909;28;19942;-87
2021/10/08 13:12:48;;;;;;;;;;;;;;;;;;5055250;28;19916;-85
2021/10/08 13:15:15;;;;;;;;;;;;;;;;;;5054690;28;20326;-86
2021/10/08 13:17:40;;;;;;;;;;;;;;;;;;5054765;28;20019;-87
2021/10/08 13:20:10;;;;;;;;;;;;;;;;;;5054488;28;19921;-88
2021/10/08 13:22:38;;;;;;;;;;;;;;;;;;5055295;28;20373;-88
2021/10/08 13:25:04;;;;;;;;;;;;;;;;;;5054363;28;19952;-85
2021/10/08 13:27:32;;;;;;;;;;;;;;;;;;5036655;28;19956;-86
2021/10/08 13:30:01;;;;;;;;;;;;;;;;;;5038025;28;19917;-86
2021/10/08 13:32:27;;;;;;;;;;;;;;;;;;5054532;28;19917;-86
2021/10/08 13:34:52;;;;;;;;;;;;;;;;;;5036411;28;20365;-86
2021/10/08 13:37:18;;;;;;;;;;;;;;;;;;5054337;28;19916;-85
2021/10/08 13:39:43;;;;;;;;;;;;;;;;;;5053782;28;20361;-87
2021/10/08 13:42:09;;;;;;;;;;;;;;;;;;5054519;28;19963;-88
2021/10/08 13:44:37;;;;;;;;;;;;;;;;;;5036257;28;19919;-85
2021/10/08 13:47:02;;;;;;;;;;;;;;;;;;5055311;28;20292;-88
2021/10/08 13:49:28;;;;;;;;;;;;;;;;;;5055784;28;19920;-90
2021/10/08 13:51:53;;;;;;;;;;;;;;;;;;5054595;28;19917;-90
2021/10/08 13:54:19;;;;;;;;;;;;;;;;;;5053811;28;19916;-88
2021/10/08 13:56:46;;;;;;;;;;;;;;;;;;5053817;28;19921;-87
2021/10/08 13:59:11;;;;;;;;;;;;;;;;;;5053828;28;19921;-90
2021/10/08 14:01:44;;;;;;;;;;;;;;;;;;5055654;28;20330;-87
2021/10/08 14:04:21;;;;;;;;;;;;;;;;;;5054476;28;20063;-90
2021/10/08 14:07:55;;;;;;;;;;;;;;;;;;5054208;28;19963;-90
2021/10/08 14:12:28;;;;;;;;;;;;;;;;;;5053849;28;20148;-91
2021/10/08 14:14:54;;;;;;;;;;;;;;;;;;5053768;28;19968;-87
2021/10/08 14:17:19;;;;;;;;;;;;;;;;;;5053882;28;19921;-88
2021/10/08 14:19:44;;;;;;;;;;;;;;;;;;5053580;28;19963;-91
2021/10/08 14:22:10;;;;;;;;;;;;;;;;;;5053604;28;19921;-89
2021/10/08 14:24:35;;;;;;;;;;;;;;;;;;5053655;28;20000;-87
2021/10/08 14:27:01;;;;;;;;;;;;;;;;;;5053567;28;19924;-88
2021/10/08 14:29:27;;;;;;;;;;;;;;;;;;5053591;28;19921;-90
2021/10/08 14:31:52;;;;;;;;;;;;;;;;;;5036101;28;20015;-90
2021/10/08 14:34:18;;;;;;;;;;;;;;;;;;5053119;28;20269;-90
2021/10/08 14:36:43;;;;;;;;;;;;;;;;;;5053798;28;19924;-90
2021/10/08 14:39:09;;;;;;;;;;;;;;;;;;5053637;28;19917;-87
2021/10/08 14:41:34;;;;;;;;;;;;;;;;;;5053211;28;19917;-86
2021/10/08 14:43:59;;;;;;;;;;;;;;;;;;5053344;28;19924;-88
2021/10/08 14:46:25;;;;;;;;;;;;;;;;;;5036442;28;19921;-88
2021/10/08 14:48:55;;;;;;;;;;;;;;;;;;5053376;28;19924;-85
2021/10/08 14:51:25;;;;;;;;;;;;;;;;;;5038087;28;19956;-88
2021/10/08 14:53:50;;;;;;;;;;;;;;;;;;5059962;28;20284;-89
2021/10/08 14:56:23;;;;;;;;;;;;;;;;;;5057744;28;19916;-88
2021/10/08 14:58:49;;;;;;;;;;;;;;;;;;5058191;28;19920;-89
2021/10/08 15:01:20;;;;;;;;;;;;;;;;;;5057051;28;19921;-89
2021/10/08 15:03:45;;;;;;;;;;;;;;;;;;5039329;28;20357;-88
2021/10/08 15:06:10;;;;;;;;;;;;;;;;;;5057045;28;19928;-88
2021/10/08 15:08:36;;;;;;;;;;;;;;;;;;5057169;28;19960;-89
2021/10/08 15:11:01;;;;;;;;;;;;;;;;;;5057921;28;19966;-88
2021/10/08 15:13:27;;;;;;;;;;;;;;;;;;5056993;28;20015;-90
2021/10/08 15:15:53;;;;;;;;;;;;;;;;;;5057066;28;20019;-89
2021/10/08 15:18:19;;;;;;;;;;;;;;;;;;5057068;28;19917;-87
2021/10/08 15:20:44;;;;;;;;;;;;;;;;;;5056846;28;19917;-86
2021/10/08 15:23:09;;;;;;;;;;;;;;;;;;5057644;28;20467;-88
2021/10/08 15:25:35;;;;;;;;;;;;;;;;;;5056872;28;20359;-88
2021/10/08 15:28:00;;;;;;;;;;;;;;;;;;5056973;28;19916;-87
2021/10/08 15:30:27;;;;;;;;;;;;;;;;;;5056812;28;19923;-88
2021/10/08 15:32:53;;;;;;;;;;;;;;;;;;5056639;28;19963;-87
2021/10/08 15:35:18;;;;;;;;;;;;;;;;;;5056539;28;19912;-88
2021/10/08 15:37:44;;;;;;;;;;;;;;;;;;5057134;28;19917;-87
2021/10/08 15:40:09;;;;;;;;;;;;;;;;;;5057953;28;19920;-87
2021/10/08 15:42:36;;;;;;;;;;;;;;;;;;5038417;28;19964;-84
2021/10/08 15:45:03;;;;;;;;;;;;;;;;;;5056569;28;19950;-85
2021/10/08 15:47:28;;;;;;;;;;;;;;;;;;5058073;28;19917;-85
2021/10/08 15:49:53;;;;;;;;;;;;;;;;;;5056747;28;20399;-85
2021/10/08 15:52:21;;;;;;;;;;;;;;;;;;5056175;28;20352;-84
2021/10/08 15:54:46;;;;;;;;;;;;;;;;;;5062242;28;19924;-84
2021/10/08 15:57:12;;;;;;;;;;;;;;;;;;5063162;28;19921;-85
2021/10/08 15:59:37;;;;;;;;;;;;;;;;;;5061274;28;20430;-82
2021/10/08 16:02:03;;;;;;;;;;;;;;;;;;5057484;28;19939;-83
2021/10/08 16:04:28;;;;;;;;;;;;;;;;;;5056443;28;20015;-83
2021/10/08 16:06:54;;;;;;;;;;;;;;;;;;5056613;28;19914;-83
2021/10/08 16:09:19;;;;;;;;;;;;;;;;;;5056171;28;19940;-84
2021/10/08 16:11:45;;;;;;;;;;;;;;;;;;5056113;28;19917;-81
2021/10/08 16:14:11;;;;;;;;;;;;;;;;;;5056313;28;19966;-82
2021/10/08 16:16:42;;;;;;;;;;;;;;;;;;5038069;28;19948;-79
2021/10/08 16:19:21;;;;;;;;;;;;;;;;;;5054445;28;20551;-80
2021/10/08 16:21:48;;;;;;;;;;;;;;;;;;5055412;28;19916;-81
2021/10/08 16:24:14;;;;;;;;;;;;;;;;;;5054549;28;19919;-80
2021/10/08 16:26:40;;;;;;;;;;;;;;;;;;5054581;28;19916;-81
2021/10/08 16:29:05;;;;;;;;;;;;;;;;;;5054215;28;19916;-83
2021/10/08 16:31:33;;;;;;;;;;;;;;;;;;5055484;28;19928;-80
2021/10/08 16:34:00;;;;;;;;;;;;;;;;;;5055328;28;20331;-80
2021/10/08 16:36:28;;;;;;;;;;;;;;;;;;5055418;28;20515;-80
2021/10/08 16:38:53;;;;;;;;;;;;;;;;;;5055301;28;19917;-79
2021/10/08 16:41:19;;;;;;;;;;;;;;;;;;5055259;28;19978;-79
2021/10/08 16:43:44;;;;;;;;;;;;;;;;;;5055570;28;19917;-81
2021/10/08 16:46:09;;;;;;;;;;;;;;;;;;5055073;28;19964;-80
2021/10/08 16:48:35;;;;;;;;;;;;;;;;;;5055151;28;19970;-81
2021/10/08 16:51:00;;;;;;;;;;;;;;;;;;5055113;28;20288;-81
2021/10/08 16:53:26;;;;;;;;;;;;;;;;;;5046130;28;19924;-81